Time;durP1;ratioP1;P1;durP2;ratioP2;P2;SDS_P1;SDS_P2;PMS_P1;PMS_P2;Temp;Humidity;BMP_temperature;BMP_pressure;BME280_temperature;BME280_humidity;BME280_pressure;Samples;Min_cycle;Max_cycle;Signal;HPM_P1;HPM_P2
2023/03/13 00:01:48;;;;;;;15.47;4.13;;;;;;;5.77;100.00;95810.41;10371670;28;20316;-66
2023/03/13 00:06:48;;;;;;;20.57;4.53;;;;;;;5.89;100.00;95809.22;10372003;28;20209;-66
2023/03/13 00:11:48;;;;;;;17.47;4.33;;;;;;;5.75;100.00;95810.56;10371648;28;20186;-66
2023/03/13 00:16:49;;;;;;;12.33;4.13;;;;;;;5.82;100.00;95809.00;10371454;28;20316;-66
2023/03/13 00:21:49;;;;;;;17.17;4.33;;;;;;;5.85;100.00;95810.47;10371550;28;20232;-66
2023/03/13 00:26:49;;;;;;;18.33;4.77;;;;;;;5.77;100.00;95790.44;10370251;28;20324;-66
2023/03/13 00:31:50;;;;;;;22.00;4.57;;;;;;;5.77;100.00;95785.22;10371412;28;20189;-66
2023/03/13 00:36:50;;;;;;;25.27;4.70;;;;;;;5.75;100.00;95802.75;10369437;28;20598;-66
2023/03/13 00:41:51;;;;;;;15.80;3.77;;;;;;;5.77;100.00;95800.03;10370667;28;20591;-66
2023/03/13 00:46:51;;;;;;;15.03;3.33;;;;;;;5.80;100.00;95804.91;10370394;28;20308;-65
2023/03/13 00:51:52;;;;;;;19.57;4.17;;;;;;;5.79;100.00;95795.47;10394761;28;20287;-66
2023/03/13 00:56:52;;;;;;;19.23;3.37;;;;;;;5.80;100.00;95789.31;10410491;28;20212;-66
2023/03/13 01:01:52;;;;;;;20.57;4.23;;;;;;;5.72;100.00;95796.06;10410908;28;20247;-67
2023/03/13 01:06:54;;;;;;;22.90;4.70;;;;;;;5.76;100.00;95787.97;10392902;28;20213;-67
2023/03/13 01:11:54;;;;;;;7.60;3.03;;;;;;;5.84;100.00;95786.28;10410509;28;20201;-66
2023/03/13 01:16:55;;;;;;;20.40;4.00;;;;;;;5.75;100.00;95794.16;10392080;28;20319;-66
2023/03/13 01:21:55;;;;;;;15.30;3.80;;;;;;;5.72;100.00;95774.47;10409992;28;20215;-66
2023/03/13 01:26:55;;;;;;;18.83;4.00;;;;;;;5.66;100.00;95769.88;10391567;28;20209;-66
2023/03/13 01:31:57;;;;;;;15.10;3.10;;;;;;;5.66;100.00;95751.69;10392105;28;20219;-66
2023/03/13 01:36:58;;;;;;;16.53;3.53;;;;;;;5.75;100.00;95752.59;10377787;28;20206;-66
2023/03/13 01:41:59;;;;;;;22.93;4.37;;;;;;;5.82;100.00;95754.44;10367376;28;20217;-66
2023/03/13 01:46:59;;;;;;;23.73;4.20;;;;;;;5.74;100.00;95754.34;10368040;28;20688;-65
2023/03/13 01:52:03;;;;;;;17.57;3.93;;;;;;;5.70;100.00;95750.44;10368098;28;20580;-66
2023/03/13 01:57:12;;;;;;;30.13;6.60;;;;;;;5.59;100.00;95748.06;10350205;28;20212;-66
2023/03/13 02:02:13;;;;;;;34.93;6.27;;;;;;;5.51;100.00;95749.63;10349585;28;20239;-66
2023/03/13 02:07:18;;;;;;;20.57;5.60;;;;;;;5.57;100.00;95753.41;10366977;28;20217;-66
2023/03/13 02:12:29;;;;;;;18.07;3.70;;;;;;;5.52;100.00;95753.84;10350076;28;20193;-66
2023/03/13 02:17:33;;;;;;;24.00;4.67;;;;;;;5.58;100.00;95739.44;10358954;23;20806;-64
2023/03/13 02:22:39;;;;;;;17.53;3.30;;;;;;;5.56;100.00;95723.22;10328266;28;20227;-64
2023/03/13 02:27:40;;;;;;;18.37;4.13;;;;;;;5.44;100.00;95719.22;10303555;28;20317;-61
2023/03/13 02:32:40;;;;;;;20.37;3.50;;;;;;;5.49;100.00;95732.56;10289280;28;20179;-64
2023/03/13 02:37:43;;;;;;;19.13;3.90;;;;;;;5.50;100.00;95716.00;10288963;28;20648;-64
2023/03/13 02:42:49;;;;;;;15.97;3.33;;;;;;;5.46;100.00;95718.06;10272658;28;20343;-63
2023/03/13 02:47:49;;;;;;;20.67;3.47;;;;;;;5.47;100.00;95713.72;10287532;28;20603;-63
2023/03/13 02:52:54;;;;;;;22.77;4.03;;;;;;;5.45;100.00;95716.47;10303813;28;20179;-63
2023/03/13 02:57:55;;;;;;;17.20;4.17;;;;;;;5.46;100.00;95719.88;10303648;28;20206;-64
2023/03/13 03:02:55;;;;;;;21.53;4.83;;;;;;;5.51;100.00;95710.66;10288364;28;20709;-63
2023/03/13 03:07:56;;;;;;;15.03;3.47;;;;;;;5.63;100.00;95707.81;10288619;28;20225;-63
2023/03/13 03:12:57;;;;;;;22.63;5.03;;;;;;;5.67;100.00;95719.56;10303302;28;20742;-63
2023/03/13 03:17:58;;;;;;;16.97;5.87;;;;;;;5.80;100.00;95703.56;10290227;28;20293;-63
2023/03/13 03:22:58;;;;;;;24.20;4.63;;;;;;;5.87;100.00;95699.41;10295762;28;20329;-63
2023/03/13 03:28:00;;;;;;;14.67;4.40;;;;;;;5.88;100.00;95680.22;10309810;28;20207;-64
2023/03/13 03:33:02;;;;;;;20.23;7.90;;;;;;;5.86;100.00;95682.97;10294387;28;20199;-61
2023/03/13 03:38:04;;;;;;;17.63;3.73;;;;;;;5.97;100.00;95671.56;10309704;28;20210;-63
2023/03/13 03:43:04;;;;;;;16.20;3.80;;;;;;;5.95;100.00;95657.84;10295128;28;20214;-64
2023/03/13 03:48:04;;;;;;;18.50;3.63;;;;;;;5.96;100.00;95641.28;10309666;28;20206;-64
2023/03/13 03:53:05;;;;;;;17.07;3.27;;;;;;;6.01;100.00;95631.25;10309480;28;20183;-64
2023/03/13 03:58:07;;;;;;;16.70;3.63;;;;;;;5.93;100.00;95630.41;10293193;28;20697;-64
2023/03/13 04:03:27;;;;;;;14.23;3.33;;;;;;;5.99;100.00;95622.81;10307193;28;20252;-64
2023/03/13 04:08:27;;;;;;;14.83;3.73;;;;;;;6.02;100.00;95606.09;10349288;28;20245;-63
2023/03/13 04:13:28;;;;;;;15.47;2.77;;;;;;;6.05;100.00;95598.78;10332855;28;20189;-64
2023/03/13 04:18:31;;;;;;;15.90;3.13;;;;;;;6.12;100.00;95577.38;10348648;28;20237;-64
2023/03/13 04:23:32;;;;;;;16.87;3.53;;;;;;;5.85;100.00;95585.19;10332561;28;20293;-63
2023/03/13 04:28:33;;;;;;;23.47;3.17;;;;;;;6.08;100.00;95582.09;10332624;28;20210;-63
2023/03/13 04:33:35;;;;;;;7.57;2.43;;;;;;;6.15;100.00;95571.84;10332191;28;20213;-62
2023/03/13 04:39:08;;;;;;;13.80;3.00;;;;;;;6.17;100.00;95564.69;10319755;28;20202;-63
2023/03/13 04:44:28;;;;;;;14.37;2.80;;;;;;;6.07;100.00;95552.66;10331803;28;20221;-63
2023/03/13 04:49:39;;;;;;;19.90;4.20;;;;;;;6.09;100.00;95551.69;10331498;28;20186;-63
2023/03/13 04:54:54;;;;;;;13.13;3.13;;;;;;;6.06;100.00;95543.25;10331322;28;20771;-63
2023/03/13 05:00:10;;;;;;;15.97;3.37;;;;;;;6.21;100.00;95537.41;10330669;28;20593;-64
2023/03/13 05:05:20;;;;;;;19.20;3.70;;;;;;;6.19;100.00;95524.56;10330841;28;20228;-63
2023/03/13 05:10:53;;;;;;;13.87;2.87;;;;;;;6.25;100.00;95517.94;10330747;28;20189;-63
2023/03/13 05:16:13;;;;;;;17.00;2.97;;;;;;;6.24;100.00;95498.09;10329361;28;20261;-64
2023/03/13 05:21:31;;;;;;;16.23;2.97;;;;;;;6.25;100.00;95491.94;10331063;28;20230;-64
2023/03/13 05:26:46;;;;;;;25.47;3.80;;;;;;;6.27;100.00;95469.16;10329042;28;20217;-63
2023/03/13 05:32:02;;;;;;;18.67;3.80;;;;;;;6.50;100.00;95471.16;10329715;28;20240;-62
2023/03/13 05:37:22;;;;;;;15.20;2.67;;;;;;;6.40;100.00;95455.69;10330354;28;20206;-60
2023/03/13 05:42:34;;;;;;;9.37;2.17;;;;;;;6.46;100.00;95443.81;10329348;28;20597;-62
2023/03/13 05:47:48;;;;;;;14.07;2.80;;;;;;;6.34;100.00;95441.56;10328917;28;20272;-63
2023/03/13 05:53:06;;;;;;;13.00;3.00;;;;;;;6.22;100.00;95433.25;10329065;28;20224;-63
2023/03/13 05:58:14;;;;;;;19.37;4.17;;;;;;;6.03;100.00;95430.94;10328542;28;20210;-63
2023/03/13 06:03:25;;;;;;;12.27;3.43;;;;;;;5.95;100.00;95436.91;10330369;28;20244;-63
2023/03/13 06:08:27;;;;;;;20.93;4.13;;;;;;;5.87;100.00;95449.88;10328365;28;20210;-63
2023/03/13 06:13:28;;;;;;;7.70;3.97;;;;;;;5.77;100.00;95423.22;10326927;28;20596;-61
2023/03/13 06:18:33;;;;;;;16.17;5.73;;;;;;;5.67;100.00;95412.97;10328095;28;20402;-64
2023/03/13 06:23:34;;;;;;;22.07;5.87;;;;;;;5.62;100.00;95426.44;10329606;28;20301;-64
2023/03/13 06:28:35;;;;;;;11.63;4.50;;;;;;;5.70;100.00;95423.03;10325884;28;20214;-64
2023/03/13 06:33:36;;;;;;;8.23;4.13;;;;;;;5.77;100.00;95413.63;10329328;28;20177;-62
2023/03/13 06:38:36;;;;;;;6.97;3.83;;;;;;;5.89;100.00;95409.75;10329193;28;20704;-64
2023/03/13 06:43:39;;;;;;;8.40;3.73;;;;;;;5.97;100.00;95388.22;10329102;28;20381;-64
2023/03/13 06:48:39;;;;;;;11.67;3.87;;;;;;;6.12;100.00;95380.56;10329000;28;20229;-62
2023/03/13 06:53:40;;;;;;;18.37;5.83;;;;;;;6.05;100.00;95379.63;10332324;28;20190;-63
2023/03/13 06:58:40;;;;;;;15.60;4.60;;;;;;;6.18;100.00;95363.53;10336783;28;20222;-63
2023/03/13 07:03:41;;;;;;;9.73;3.60;;;;;;;6.34;100.00;95362.69;10336811;28;20321;-62
2023/03/13 07:08:43;;;;;;;10.53;3.80;;;;;;;6.55;100.00;95373.41;10336413;28;20222;-62
2023/03/13 07:13:43;;;;;;;9.33;3.37;;;;;;;6.75;100.00;95355.66;10336426;28;20190;-64
2023/03/13 07:18:43;;;;;;;12.27;4.23;;;;;;;6.67;100.00;95350.47;10308560;28;20322;-63
2023/03/13 07:23:44;;;;;;;8.90;4.87;;;;;;;6.43;100.00;95335.69;10314947;28;20217;-63
2023/03/13 07:28:44;;;;;;;10.77;5.77;;;;;;;6.36;100.00;95355.56;10302225;28;20214;-61
2023/03/13 07:33:45;;;;;;;14.43;4.60;;;;;;;6.45;100.00;95332.94;10295041;28;20233;-61
2023/03/13 07:38:48;;;;;;;11.13;4.50;;;;;;;6.38;100.00;95311.97;10295484;28;20218;-62
2023/03/13 07:43:49;;;;;;;15.53;4.57;;;;;;;6.45;100.00;95307.75;10295401;28;20226;-62
2023/03/13 07:48:50;;;;;;;8.13;3.37;;;;;;;6.47;100.00;95286.78;10326230;28;20288;-58
2023/03/13 07:53:51;;;;;;;8.70;3.47;;;;;;;6.62;100.00;95276.50;10328749;28;20571;-61
2023/03/13 07:58:51;;;;;;;6.77;3.77;;;;;;;6.76;100.00;95268.78;10332936;28;20704;-61
2023/03/13 08:03:53;;;;;;;7.40;2.50;;;;;;;6.96;100.00;95265.78;10331647;28;20225;-61
2023/03/13 08:08:56;;;;;;;9.33;3.07;;;;;;;7.01;100.00;95260.88;10333258;28;20256;-59
2023/03/13 08:13:57;;;;;;;5.07;2.67;;;;;;;7.01;100.00;95270.47;10331769;28;20653;-63
2023/03/13 08:18:58;;;;;;;12.23;3.07;;;;;;;7.02;100.00;95277.31;10421676;23;20236;-64
2023/03/13 08:24:00;;;;;;;6.20;2.83;;;;;;;7.04;100.00;95263.13;10454559;28;20261;-65
2023/03/13 08:29:04;;;;;;;6.10;2.17;;;;;;;7.16;100.00;95262.75;10454325;28;20216;-65
2023/03/13 08:34:04;;;;;;;6.07;2.37;;;;;;;7.26;100.00;95276.38;10454780;28;20249;-65
2023/03/13 08:39:08;;;;;;;5.60;2.77;;;;;;;7.18;100.00;95271.19;10453917;28;20234;-65
2023/03/13 08:44:14;;;;;;;3.57;1.97;;;;;;;7.35;100.00;95259.72;10436102;28;20626;-65
2023/03/13 08:49:16;;;;;;;6.30;2.50;;;;;;;7.60;100.00;95288.22;10452832;28;20219;-64
2023/03/13 08:54:16;;;;;;;3.60;2.17;;;;;;;7.73;100.00;95285.84;10453330;28;20192;-64
2023/03/13 08:59:17;;;;;;;3.67;1.50;;;;;;;7.89;100.00;95294.50;10453215;28;20208;-64
2023/03/13 09:04:18;;;;;;;2.57;1.80;;;;;;;7.91;100.00;95292.56;10453271;28;20191;-65
2023/03/13 09:09:18;;;;;;;3.47;1.80;;;;;;;8.03;100.00;95275.50;10452297;28;20646;-65
2023/03/13 09:14:18;;;;;;;2.13;1.50;;;;;;;8.17;100.00;95292.97;10452711;28;20188;-65
2023/03/13 09:19:19;;;;;;;2.13;1.30;;;;;;;8.33;100.00;95265.94;10451197;28;20240;-64
2023/03/13 09:24:19;;;;;;;3.03;1.33;;;;;;;8.48;100.00;95258.16;10452264;28;20203;-65
2023/03/13 09:29:19;;;;;;;4.20;1.50;;;;;;;8.67;100.00;95259.44;10451895;28;20250;-66
2023/03/13 09:34:22;;;;;;;0.90;0.90;;;;;;;8.52;100.00;95256.00;10440257;28;20199;-65
2023/03/13 09:39:22;;;;;;;1.83;1.03;;;;;;;8.52;100.00;95272.47;10428074;28;20229;-66
2023/03/13 09:44:26;;;;;;;3.07;1.37;;;;;;;8.68;100.00;95276.72;10431825;28;20282;-66
2023/03/13 09:49:34;;;;;;;1.73;1.40;;;;;;;9.06;100.00;95263.50;10395239;28;20208;-66
2023/03/13 09:54:42;;;;;;;2.23;1.30;;;;;;;9.56;100.00;95228.88;10447253;28;20192;-67
2023/03/13 09:59:59;;;;;;;1.53;1.27;;;;;;;10.28;100.00;95227.84;10432398;28;20580;-66
2023/03/13 10:05:07;;;;;;;1.35;1.10;;;;;;;10.21;100.00;95219.13;10450504;28;20187;-66
2023/03/13 10:10:16;;;;;;;2.95;1.17;;;;;;;10.42;100.00;95212.25;10450691;28;20748;-67
2023/03/13 10:15:44;;;;;;;2.20;1.25;;;;;;;10.20;100.00;95237.63;10451113;28;20192;-65
2023/03/13 10:20:45;;;;;;;0.73;0.73;;;;;;;9.86;100.00;95231.34;10406763;28;20234;-63
2023/03/13 10:25:46;;;;;;;3.67;1.20;;;;;;;9.91;100.00;95226.38;10438713;28;20204;-66
2023/03/13 10:30:51;;;;;;;3.07;1.40;;;;;;;10.14;100.00;95207.84;10449050;28;20211;-66
2023/03/13 10:36:22;;;;;;;1.77;1.20;;;;;;;10.69;100.00;95200.13;10450322;28;20203;-66
2023/03/13 10:41:30;;;;;;;2.47;1.55;;;;;;;10.85;100.00;95194.53;10437034;28;20630;-66
2023/03/13 10:46:33;;;;;;;4.28;1.95;;;;;;;11.31;100.00;95182.56;10432324;28;20196;-65
2023/03/13 10:51:37;;;;;;;5.72;2.55;;;;;;;11.15;100.00;95211.75;10450243;28;20203;-64
2023/03/13 10:56:37;;;;;;;5.40;1.52;;;;;;;11.20;100.00;95204.13;10442470;28;20188;-63
2023/03/13 11:01:41;;;;;;;1.30;1.20;;;;;;;11.38;100.00;95193.09;10425270;28;20303;-64
2023/03/13 11:06:41;;;;;;;1.05;0.90;;;;;;;10.99;100.00;95212.94;10449767;28;20195;-65
2023/03/13 11:11:50;;;;;;;2.28;1.25;;;;;;;11.14;100.00;95215.41;10449895;28;20190;-65
2023/03/13 11:16:59;;;;;;;3.07;1.67;;;;;;;11.16;100.00;95202.91;10431270;28;20681;-65
2023/03/13 11:22:15;;;;;;;3.38;1.42;;;;;;;11.02;100.00;95197.59;10424604;28;20220;-65
2023/03/13 11:27:23;;;;;;;2.53;1.20;;;;;;;10.98;100.00;95214.75;10447904;28;20219;-64
2023/03/13 11:32:40;;;;;;;4.32;1.13;;;;;;;11.11;100.00;95224.47;10444645;28;20185;-65
2023/03/13 11:37:42;;;;;;;1.55;1.10;;;;;;;10.96;100.00;95223.81;10411058;28;20212;-67
2023/03/13 11:43:04;;;;;;;2.35;1.10;;;;;;;11.00;100.00;95228.44;10416722;28;20224;-67
2023/03/13 11:48:22;;;;;;;1.38;0.95;;;;;;;10.96;100.00;95235.06;10431685;28;20265;-67
2023/03/13 11:53:44;;;;;;;1.08;0.93;;;;;;;11.13;100.00;95226.88;10431398;28;20192;-64
2023/03/13 11:59:19;;;;;;;1.10;1.00;;;;;;;11.01;100.00;95216.97;10415429;28;20225;-65
2023/03/13 12:04:27;;;;;;;1.48;0.95;;;;;;;10.94;100.00;95218.75;10415968;28;20302;-65
2023/03/13 12:09:38;;;;;;;3.25;1.30;;;;;;;10.77;100.00;95227.97;10413395;28;20330;-64
2023/03/13 12:14:43;;;;;;;1.30;1.20;;;;;;;10.77;100.00;95209.63;10431162;28;20184;-66
2023/03/13 12:19:52;;;;;;;2.65;1.33;;;;;;;11.16;100.00;95172.25;10454863;28;20326;-66
2023/03/13 12:25:02;;;;;;;2.95;1.90;;;;;;;11.13;100.00;95188.38;10437350;28;20207;-65
2023/03/13 12:30:20;;;;;;;1.20;1.20;;;;;;;11.24;100.00;95179.16;10453056;28;20261;-66
2023/03/13 12:35:27;;;;;;;1.80;1.02;;;;;;;11.20;100.00;95180.53;10454021;28;20195;-67
2023/03/13 12:41:09;;;;;;;2.55;1.08;;;;;;;11.63;100.00;95182.03;10454406;28;20231;-66
2023/03/13 12:46:33;;;;;;;1.77;1.20;;;;;;;11.58;100.00;95154.56;10382101;28;20234;-66
2023/03/13 12:51:58;;;;;;;2.38;1.83;;;;;;;11.82;100.00;95143.66;10435546;28;20547;-65
2023/03/13 12:57:39;;;;;;;1.63;1.10;;;;;;;12.25;97.85;95122.22;10402311;28;20585;-64
2023/03/13 13:02:40;;;;;;;4.63;1.40;;;;;;;12.59;94.82;95123.75;10451458;28;20583;-62
2023/03/13 13:07:51;;;;;;;2.58;1.45;;;;;;;12.85;93.38;95120.19;10453555;28;20231;-64
2023/03/13 13:13:13;;;;;;;1.85;1.10;;;;;;;12.91;92.35;95104.56;10453163;28;20187;-64
2023/03/13 13:18:25;;;;;;;4.70;1.60;;;;;;;13.35;89.37;95095.03;10452763;28;20243;-63
2023/03/13 13:23:38;;;;;;;2.95;1.02;;;;;;;13.59;89.34;95097.91;10452804;28;20227;-63
2023/03/13 13:28:38;;;;;;;1.52;1.25;;;;;;;14.20;85.86;95059.44;10452583;28;20780;-63
2023/03/13 13:33:39;;;;;;;1.40;0.98;;;;;;;13.53;84.34;95055.63;10434329;28;20269;-61
2023/03/13 13:38:40;;;;;;;1.10;0.90;;;;;;;13.67;85.67;95074.72;10451045;28;20330;-62
2023/03/13 13:43:43;;;;;;;1.55;1.20;;;;;;;13.67;84.25;95040.50;10433950;28;20672;-62
2023/03/13 13:48:44;;;;;;;1.33;1.23;;;;;;;14.36;81.85;95000.06;10451523;28;20208;-62
2023/03/13 13:53:49;;;;;;;1.88;1.42;;;;;;;14.04;83.24;95031.84;10418697;28;20196;-64
2023/03/13 13:58:49;;;;;;;1.10;1.00;;;;;;;14.35;83.95;95040.59;10444960;28;20204;-63
2023/03/13 14:03:50;;;;;;;1.88;1.35;;;;;;;14.25;82.90;95023.50;10450309;28;20219;-63
2023/03/13 14:08:54;;;;;;;2.05;1.10;;;;;;;14.11;82.48;95044.97;10448251;28;20208;-63
2023/03/13 14:14:17;;;;;;;1.10;1.00;;;;;;;13.55;84.46;95073.81;10432822;28;20196;-62
2023/03/13 14:19:21;;;;;;;2.25;1.60;;;;;;;13.30;85.13;95068.53;10438094;22;20245;-61
2023/03/13 14:24:22;;;;;;;9.45;1.70;;;;;;;13.47;84.68;95064.38;10331487;28;20257;-61
2023/03/13 14:29:25;;;;;;;8.38;1.63;;;;;;;13.51;85.30;95062.13;10349505;28;20315;-56
2023/03/13 14:34:27;;;;;;;1.83;1.60;;;;;;;13.38;84.72;95020.94;10310230;28;20193;-61
2023/03/13 14:39:43;;;;;;;1.25;1.15;;;;;;;13.66;85.19;95030.22;10301931;28;20221;-58
2023/03/13 14:44:47;;;;;;;2.80;1.20;;;;;;;14.22;81.52;94973.91;10369135;28;20690;-61
2023/03/13 14:49:47;;;;;;;0.98;0.85;;;;;;;13.52;83.21;95009.31;10366573;28;20202;-59
2023/03/13 14:54:56;;;;;;;2.63;1.45;;;;;;;13.26;84.85;95022.66;10345116;28;20193;-61
2023/03/13 15:00:29;;;;;;;1.02;0.80;;;;;;;13.00;86.40;95014.75;10321755;28;20214;-62
2023/03/13 15:05:31;;;;;;;3.03;1.55;;;;;;;12.80;87.82;95049.06;10305104;28;20201;-60
2023/03/13 15:10:35;;;;;;;2.13;1.23;;;;;;;12.88;88.74;95034.88;10319878;28;20259;-60
2023/03/13 15:15:36;;;;;;;0.98;0.82;;;;;;;12.77;89.37;95052.13;10370484;28;20196;-61
2023/03/13 15:20:36;;;;;;;2.85;1.48;;;;;;;12.70;89.31;95055.81;10374368;28;20715;-59
2023/03/13 15:25:39;;;;;;;2.10;1.52;;;;;;;12.61;89.13;95032.38;10374778;28;20850;-60
2023/03/13 15:30:39;;;;;;;6.57;4.10;;;;;;;12.67;89.23;95007.91;10342033;28;20215;-59
2023/03/13 15:35:40;;;;;;;2.88;2.17;;;;;;;12.73;88.62;95015.97;10294195;28;20646;-61
2023/03/13 15:40:40;;;;;;;28.98;14.68;;;;;;;12.66;89.23;95008.09;10293282;28;20270;-60
2023/03/13 15:45:42;;;;;;;2.97;1.45;;;;;;;12.55;89.67;95016.66;10339275;28;20193;-60
2023/03/13 15:50:43;;;;;;;3.63;2.13;;;;;;;12.41;90.35;94987.03;10374130;28;20212;-61
2023/03/13 15:55:45;;;;;;;1.42;1.33;;;;;;;12.40;90.26;94978.34;10373195;28;20636;-60
2023/03/13 16:00:47;;;;;;;1.50;1.30;;;;;;;12.90;87.60;94942.66;10373841;28;20227;-59
2023/03/13 16:05:47;;;;;;;1.25;1.10;;;;;;;12.82;88.14;94931.41;10373205;28;20652;-58
2023/03/13 16:10:48;;;;;;;3.38;1.13;;;;;;;12.60;88.02;94919.63;10373307;28;20205;-60
2023/03/13 16:15:49;;;;;;;2.28;1.05;;;;;;;12.61;88.64;94911.53;10344365;28;20660;-60
2023/03/13 16:20:50;;;;;;;2.17;1.60;;;;;;;12.43;89.10;94909.63;10310980;28;20317;-60
2023/03/13 16:25:50;;;;;;;1.38;1.27;;;;;;;12.35;89.67;94896.78;10310483;28;20273;-61
2023/03/13 16:30:51;;;;;;;3.53;2.78;;;;;;;12.25;89.87;94894.63;10309768;28;20214;-61
2023/03/13 16:35:53;;;;;;;2.72;1.50;;;;;;;12.08;90.63;94886.47;10308290;28;20285;-60
2023/03/13 16:40:53;;;;;;;3.20;1.02;;;;;;;12.18;90.25;94899.09;10308918;28;20226;-56
2023/03/13 16:45:54;;;;;;;1.33;1.20;;;;;;;12.23;89.56;94866.97;10308645;28;20272;-60
2023/03/13 16:50:54;;;;;;;2.95;1.40;;;;;;;12.16;89.04;94879.31;10322666;28;20217;-59
2023/03/13 16:55:55;;;;;;;1.92;1.30;;;;;;;12.03;89.65;94867.91;10302879;28;20206;-58
2023/03/13 17:00:55;;;;;;;1.40;1.30;;;;;;;11.74;91.53;94874.47;10306663;28;20245;-60
2023/03/13 17:05:55;;;;;;;2.13;1.48;;;;;;;11.42;93.76;94883.09;10369227;28;20200;-58
2023/03/13 17:10:56;;;;;;;2.78;1.58;;;;;;;11.32;95.32;94887.97;10371281;28;20213;-61
2023/03/13 17:15:56;;;;;;;3.47;2.38;;;;;;;11.26;96.50;94885.38;10370896;28;20232;-60
2023/03/13 17:20:57;;;;;;;15.07;7.95;;;;;;;11.21;96.92;94867.63;10369187;28;20237;-61
2023/03/13 17:25:57;;;;;;;4.97;3.67;;;;;;;11.33;96.11;94875.66;10352223;28;20807;-60
2023/03/13 17:30:57;;;;;;;5.57;3.35;;;;;;;11.32;95.72;94863.56;10308221;28;21000;-58
2023/03/13 17:35:58;;;;;;;8.38;3.65;;;;;;;11.27;95.64;94869.44;10306437;28;20828;-58
2023/03/13 17:40:58;;;;;;;3.05;1.80;;;;;;;11.02;97.59;94880.56;10306900;28;20229;-58
2023/03/13 17:45:59;;;;;;;3.25;1.73;;;;;;;10.80;100.00;94885.22;10318223;28;20198;-59
2023/03/13 17:50:59;;;;;;;3.70;1.50;;;;;;;10.72;100.00;94874.97;10327481;28;20575;-59
2023/03/13 17:55:59;;;;;;;2.53;2.27;;;;;;;10.48;100.00;94882.41;10346712;28;20264;-60
2023/03/13 18:01:00;;;;;;;3.90;1.60;;;;;;;10.35;100.00;94870.13;10325825;28;20244;-59
2023/03/13 18:06:00;;;;;;;2.10;1.45;;;;;;;10.34;100.00;94865.91;10326228;28;20194;-60
2023/03/13 18:11:00;;;;;;;3.20;1.87;;;;;;;10.42;100.00;94861.47;10328769;28;20209;-58
2023/03/13 18:16:01;;;;;;;3.03;1.83;;;;;;;10.41;100.00;94844.16;10328879;28;20217;-58
2023/03/13 18:21:01;;;;;;;2.43;1.60;;;;;;;10.38;100.00;94841.94;10328750;28;20353;-58
2023/03/13 18:26:15;;;;;;;3.23;2.20;;;;;;;10.37;100.00;94832.47;10328641;28;20188;-59
2023/03/13 18:31:16;;;;;;;3.03;2.07;;;;;;;10.35;100.00;94819.59;10327185;28;20293;-58
2023/03/13 18:36:17;;;;;;;2.50;1.80;;;;;;;10.32;100.00;94827.81;10328430;28;20200;-61
2023/03/13 18:41:18;;;;;;;4.70;1.90;;;;;;;10.35;100.00;94823.03;10327895;28;20221;-59
2023/03/13 18:46:26;;;;;;;1.45;1.15;;;;;;;10.32;100.00;94823.41;10327562;28;20182;-60
2023/03/13 18:51:27;;;;;;;1.90;1.77;;;;;;;10.29;100.00;94826.41;10334308;28;20209;-56
2023/03/13 18:56:30;;;;;;;4.17;2.10;;;;;;;10.24;100.00;94794.78;10335652;28;20197;-59
2023/03/13 19:01:30;;;;;;;4.77;1.83;;;;;;;10.30;100.00;94785.34;10335744;28;20237;-58
2023/03/13 19:06:32;;;;;;;3.23;2.23;;;;;;;10.41;100.00;94786.56;10336233;28;20204;-58
2023/03/13 19:11:33;;;;;;;2.80;2.20;;;;;;;10.39;100.00;94791.22;10336018;28;20202;-60
2023/03/13 19:16:36;;;;;;;4.40;2.95;;;;;;;10.38;100.00;94773.88;10335807;28;20671;-57
2023/03/13 19:21:37;;;;;;;2.40;1.87;;;;;;;10.52;100.00;94765.81;10334002;28;20421;-59
2023/03/13 19:26:45;;;;;;;4.07;1.70;;;;;;;10.64;100.00;94776.47;10335429;28;20752;-60
2023/03/13 19:31:46;;;;;;;3.65;1.92;;;;;;;10.81;100.00;94820.53;10334140;28;20564;-59
2023/03/13 19:36:47;;;;;;;2.63;2.30;;;;;;;11.01;100.00;94944.47;10334711;28;20205;-58
2023/03/13 19:41:48;;;;;;;4.00;1.80;;;;;;;9.89;100.00;95026.94;10334497;28;20573;-58
2023/03/13 19:46:49;;;;;;;1.93;1.30;;;;;;;9.42;100.00;95008.41;10334263;28;20209;-57
2023/03/13 19:51:49;;;;;;;5.50;1.50;;;;;;;8.93;100.00;95012.66;10332951;28;20252;-59
2023/03/13 19:56:50;;;;;;;1.47;1.30;;;;;;;8.58;100.00;94999.50;10333429;28;20198;-57
2023/03/13 20:01:50;;;;;;;2.27;1.00;;;;;;;8.37;100.00;94974.16;10333004;28;20249;-57
2023/03/13 20:06:50;;;;;;;5.93;2.90;;;;;;;8.21;100.00;94965.59;10333297;28;20217;-60
2023/03/13 20:11:51;;;;;;;2.53;0.90;;;;;;;8.15;100.00;94955.88;10332653;28;20209;-58
2023/03/13 20:16:51;;;;;;;12.90;4.93;;;;;;;8.15;100.00;94939.44;10332767;28;20225;-60
2023/03/13 20:21:51;;;;;;;2.63;1.40;;;;;;;8.32;100.00;94924.34;10430187;23;20250;-57
2023/03/13 20:26:54;;;;;;;1.67;1.00;;;;;;;8.38;100.00;94918.38;10455262;28;20191;-59
2023/03/13 20:31:59;;;;;;;1.17;1.07;;;;;;;8.83;100.00;94890.25;10455637;28;21177;-61
2023/03/13 20:36:59;;;;;;;1.40;1.07;;;;;;;8.48;100.00;94877.13;10455563;28;20195;-60
2023/03/13 20:42:01;;;;;;;1.33;0.80;;;;;;;8.44;100.00;94875.91;10455160;28;20215;-58
2023/03/13 20:47:01;;;;;;;1.17;1.07;;;;;;;8.36;100.00;94847.31;10454788;28;20199;-58
2023/03/13 20:52:03;;;;;;;1.43;1.23;;;;;;;8.35;100.00;94830.84;10454746;28;20226;-58
2023/03/13 20:57:03;;;;;;;1.40;1.20;;;;;;;8.26;100.00;94818.16;10454491;28;20207;-59
2023/03/13 21:02:05;;;;;;;1.43;1.23;;;;;;;8.23;100.00;94824.53;10454435;28;20590;-59
2023/03/13 21:07:05;;;;;;;1.20;1.10;;;;;;;8.32;100.00;94820.00;10454222;28;20326;-59
2023/03/13 21:12:06;;;;;;;0.80;0.80;;;;;;;8.33;100.00;94800.72;10453560;28;20626;-60
2023/03/13 21:17:09;;;;;;;1.03;1.03;;;;;;;8.32;100.00;94789.50;10453989;28;20563;-61
2023/03/13 21:22:09;;;;;;;1.50;1.00;;;;;;;8.28;100.00;94797.88;10453916;28;20252;-60
2023/03/13 21:27:10;;;;;;;0.83;0.80;;;;;;;8.21;100.00;94806.47;10453627;28;20203;-62
2023/03/13 21:32:10;;;;;;;2.00;1.40;;;;;;;8.18;100.00;94796.41;10453715;28;20212;-60
2023/03/13 21:37:12;;;;;;;1.30;1.20;;;;;;;8.17;100.00;94771.31;10453524;28;20195;-61
2023/03/13 21:42:12;;;;;;;1.70;1.10;;;;;;;8.15;100.00;94754.25;10453246;28;20231;-60
2023/03/13 21:47:22;;;;;;;1.67;1.10;;;;;;;8.12;100.00;94745.00;10451396;28;20200;-61
2023/03/13 21:52:23;;;;;;;1.47;1.27;;;;;;;8.10;100.00;94743.56;10450846;28;20218;-61
2023/03/13 21:57:23;;;;;;;1.20;1.07;;;;;;;8.15;100.00;94746.44;10452770;28;20191;-60
2023/03/13 22:02:23;;;;;;;1.60;1.10;;;;;;;8.18;100.00;94759.09;10452523;28;20311;-60
2023/03/13 22:07:24;;;;;;;2.00;1.10;;;;;;;8.23;100.00;94768.97;10452459;28;20189;-62
2023/03/13 22:12:25;;;;;;;1.20;1.10;;;;;;;8.21;100.00;94779.59;10452185;28;20226;-56
2023/03/13 22:17:25;;;;;;;2.70;1.33;;;;;;;8.19;100.00;94784.16;10452216;28;20245;-61
2023/03/13 22:22:26;;;;;;;3.53;1.27;;;;;;;8.16;100.00;94789.75;10451402;28;20224;-59
2023/03/13 22:27:26;;;;;;;1.27;1.07;;;;;;;8.06;100.00;94778.88;10451207;28;20218;-60
2023/03/13 22:32:26;;;;;;;2.00;1.20;;;;;;;7.96;100.00;94764.34;10436260;28;20722;-61
2023/03/13 22:37:27;;;;;;;4.80;3.27;;;;;;;7.72;100.00;94764.72;10427203;28;20682;-58
2023/03/13 22:42:27;;;;;;;1.50;1.40;;;;;;;7.88;100.00;94787.13;10422587;28;20220;-62
2023/03/13 22:47:27;;;;;;;2.37;1.60;;;;;;;8.06;100.00;94831.03;10410581;28;20196;-62
2023/03/13 22:52:29;;;;;;;3.23;1.50;;;;;;;8.21;100.00;94823.94;10410353;28;20240;-62
2023/03/13 22:57:30;;;;;;;3.10;1.63;;;;;;;8.17;100.00;94839.13;10410461;28;20188;-62
2023/03/13 23:02:30;;;;;;;4.00;1.57;;;;;;;8.15;100.00;94824.69;10420783;28;20224;-62
2023/03/13 23:07:31;;;;;;;7.40;3.83;;;;;;;8.14;100.00;94834.28;10410408;28;20566;-62
2023/03/13 23:12:31;;;;;;;3.83;2.67;;;;;;;8.37;100.00;94843.72;10409719;28;20971;-62
2023/03/13 23:17:33;;;;;;;5.00;3.53;;;;;;;8.37;100.00;94822.84;10409889;28;20203;-61
2023/03/13 23:22:33;;;;;;;3.13;2.73;;;;;;;8.40;100.00;94812.03;10409575;28;20267;-59
2023/03/13 23:27:33;;;;;;;6.30;3.17;;;;;;;8.39;100.00;94802.56;10409323;28;20208;-61